VOI371 MMAA-MMMX
Flight info
| Callsign | VOI371 |
|---|---|
| Flight time | 0h 42m |
| Altitude | 30000 |
| Route | ALNUS1B ALNUS UT117 ESPOS ESPOS3A |
| Aircraft | A320/M-SDE3FGHIRWY/LB1 |
Departure
| Time | 2026-04-24 03:25 |
|---|---|
| Airport | General Juan N. Álvarez International Airport (MMAA) |
Arrival
| Time | 2026-04-24 04:07 |
|---|---|
| Airport | Mexico City Benito Juárez International Airport (MMMX) |
| Time | Latitude | Longitude | Altitude | Speed | Heading |
|---|---|---|---|---|---|
| 2026-04-24 03:02 | 16.76142 | -99.75558 | 23 ft | 0 kts | 24° |
| 2026-04-24 03:13 | 16.76125 | -99.75565 | 24 ft | 4 kts | 16° |
| 2026-04-24 03:14 | 16.76099 | -99.75572 | 24 ft | 4 kts | 16° |
| 2026-04-24 03:14 | 16.76074 | -99.75581 | 24 ft | 4 kts | 29° |
| 2026-04-24 03:14 | 16.76054 | -99.75598 | 23 ft | 4 kts | 65° |
| 2026-04-24 03:14 | 16.76051 | -99.75615 | 23 ft | 0 kts | 107° |
| 2026-04-24 03:19 | 16.76046 | -99.75600 | 24 ft | 7 kts | 107° |
| 2026-04-24 03:19 | 16.76029 | -99.75539 | 23 ft | 10 kts | 107° |
| 2026-04-24 03:20 | 16.76003 | -99.75460 | 25 ft | 13 kts | 108° |
| 2026-04-24 03:20 | 16.75968 | -99.75371 | 24 ft | 15 kts | 133° |
| 2026-04-24 03:20 | 16.75886 | -99.75302 | 24 ft | 17 kts | 114° |
| 2026-04-24 03:20 | 16.75845 | -99.75177 | 22 ft | 20 kts | 108° |
| 2026-04-24 03:21 | 16.75800 | -99.75035 | 23 ft | 22 kts | 108° |
| 2026-04-24 03:21 | 16.75749 | -99.74874 | 22 ft | 25 kts | 108° |
| 2026-04-24 03:21 | 16.75691 | -99.74694 | 22 ft | 27 kts | 109° |
| 2026-04-24 03:21 | 16.75628 | -99.74497 | 24 ft | 30 kts | 109° |
| 2026-04-24 03:22 | 16.75561 | -99.74283 | 23 ft | 32 kts | 107° |
| 2026-04-24 03:22 | 16.75492 | -99.74051 | 23 ft | 35 kts | 107° |
| 2026-04-24 03:22 | 16.75416 | -99.73804 | 22 ft | 37 kts | 108° |
| 2026-04-24 03:22 | 16.75345 | -99.73577 | 23 ft | 25 kts | 109° |
| 2026-04-24 03:23 | 16.75286 | -99.73400 | 23 ft | 24 kts | 109° |
| 2026-04-24 03:23 | 16.75218 | -99.73332 | 25 ft | 11 kts | 177° |
| 2026-04-24 03:23 | 16.75175 | -99.73343 | 23 ft | 0 kts | 199° |
| 2026-04-24 03:23 | 16.75161 | -99.73348 | 25 ft | 7 kts | 199° |
| 2026-04-24 03:24 | 16.75097 | -99.73387 | 23 ft | 13 kts | 243° |
| 2026-04-24 03:24 | 16.75132 | -99.73546 | 22 ft | 47 kts | 288° |
| 2026-04-24 03:24 | 16.75309 | -99.74110 | 23 ft | 113 kts | 288° |
| 2026-04-24 03:24 | 16.75599 | -99.75060 | 62 ft | 157 kts | 287° |
| 2026-04-24 03:25 | 16.75951 | -99.76131 | 717 ft | 156 kts | 287° |
| 2026-04-24 03:25 | 16.76282 | -99.77224 | 1358 ft | 158 kts | 287° |
| 2026-04-24 03:25 | 16.76608 | -99.78321 | 1999 ft | 162 kts | 287° |
| 2026-04-24 03:25 | 16.76953 | -99.79512 | 2336 ft | 181 kts | 285° |
| 2026-04-24 03:26 | 16.77317 | -99.80841 | 2720 ft | 201 kts | 286° |
| 2026-04-24 03:26 | 16.77744 | -99.82314 | 3142 ft | 224 kts | 288° |
| 2026-04-24 03:26 | 16.78091 | -99.83390 | 3468 ft | 238 kts | 288° |
| 2026-04-24 03:26 | 16.78843 | -99.85652 | 4361 ft | 256 kts | 288° |
| 2026-04-24 03:27 | 16.79271 | -99.86809 | 4934 ft | 261 kts | 295° |
| 2026-04-24 03:27 | 16.80484 | -99.88229 | 5731 ft | 271 kts | 328° |
| 2026-04-24 03:27 | 16.82914 | -99.89110 | 6772 ft | 282 kts | 345° |
| 2026-04-24 03:27 | 16.84182 | -99.89424 | 7315 ft | 285 kts | 347° |
| 2026-04-24 03:28 | 16.86122 | -99.89875 | 8189 ft | 286 kts | 347° |
| 2026-04-24 03:28 | 16.88065 | -99.90321 | 9129 ft | 286 kts | 347° |
| 2026-04-24 03:28 | 16.90015 | -99.90784 | 9963 ft | 289 kts | 346° |
| 2026-04-24 03:28 | 16.92006 | -99.91304 | 10403 ft | 306 kts | 346° |
| 2026-04-24 03:29 | 16.94165 | -99.91708 | 10679 ft | 326 kts | 358° |
| 2026-04-24 03:29 | 16.96457 | -99.91437 | 11136 ft | 338 kts | 14° |
| 2026-04-24 03:29 | 16.98666 | -99.90546 | 11762 ft | 343 kts | 27° |
| 2026-04-24 03:29 | 17.00827 | -99.89473 | 12421 ft | 346 kts | 15° |
| 2026-04-24 03:30 | 17.04001 | -99.88836 | 13345 ft | 348 kts | 8° |
| 2026-04-24 03:30 | 17.05591 | -99.88586 | 13814 ft | 349 kts | 7° |
| 2026-04-24 03:30 | 17.08005 | -99.88260 | 14461 ft | 350 kts | 7° |
| 2026-04-24 03:30 | 17.10427 | -99.87850 | 15017 ft | 356 kts | 10° |
| 2026-04-24 03:31 | 17.12860 | -99.87316 | 15595 ft | 359 kts | 12° |
| 2026-04-24 03:31 | 17.15299 | -99.86716 | 16167 ft | 362 kts | 13° |
| 2026-04-24 03:31 | 17.17761 | -99.86129 | 16761 ft | 365 kts | 12° |
| 2026-04-24 03:31 | 17.20251 | -99.85558 | 17350 ft | 367 kts | 12° |
| 2026-04-24 03:32 | 17.22758 | -99.84995 | 17996 ft | 370 kts | 12° |
| 2026-04-24 03:32 | 17.25282 | -99.84442 | 18579 ft | 372 kts | 12° |
| 2026-04-24 03:32 | 17.27832 | -99.83896 | 19027 ft | 377 kts | 11° |
| 2026-04-24 03:32 | 17.30414 | -99.83355 | 19491 ft | 381 kts | 11° |
| 2026-04-24 03:33 | 17.33029 | -99.82820 | 19976 ft | 384 kts | 11° |
| 2026-04-24 03:33 | 17.35665 | -99.82294 | 20486 ft | 387 kts | 10° |
| 2026-04-24 03:33 | 17.38316 | -99.81778 | 21024 ft | 388 kts | 10° |
| 2026-04-24 03:33 | 17.40980 | -99.81272 | 21578 ft | 389 kts | 9° |
| 2026-04-24 03:34 | 17.43644 | -99.80778 | 22152 ft | 389 kts | 9° |
| 2026-04-24 03:34 | 17.46309 | -99.80298 | 22734 ft | 388 kts | 9° |
| 2026-04-24 03:34 | 17.48940 | -99.79835 | 23336 ft | 388 kts | 8° |
| 2026-04-24 03:34 | 17.51633 | -99.79375 | 23888 ft | 386 kts | 8° |
| 2026-04-24 03:35 | 17.54282 | -99.78935 | 24406 ft | 384 kts | 8° |
| 2026-04-24 03:35 | 17.56916 | -99.78510 | 24940 ft | 382 kts | 7° |
| 2026-04-24 03:35 | 17.59547 | -99.78041 | 25248 ft | 389 kts | 11° |
| 2026-04-24 03:35 | 17.62240 | -99.77496 | 25357 ft | 399 kts | 8° |
| 2026-04-24 03:36 | 17.64989 | -99.77140 | 25440 ft | 408 kts | 3° |
| 2026-04-24 03:36 | 17.67851 | -99.77048 | 25683 ft | 414 kts | 359° |
| 2026-04-24 03:36 | 17.70780 | -99.77134 | 26036 ft | 417 kts | 356° |
| 2026-04-24 03:36 | 17.73692 | -99.77299 | 26393 ft | 420 kts | 356° |
| 2026-04-24 03:37 | 17.76612 | -99.77473 | 26753 ft | 422 kts | 356° |
| 2026-04-24 03:37 | 17.79551 | -99.77629 | 27079 ft | 424 kts | 356° |
| 2026-04-24 03:37 | 17.82463 | -99.77790 | 27436 ft | 426 kts | 356° |
| 2026-04-24 03:37 | 17.85467 | -99.77961 | 27802 ft | 428 kts | 356° |
| 2026-04-24 03:38 | 17.88450 | -99.78133 | 28169 ft | 430 kts | 356° |
| 2026-04-24 03:38 | 17.91448 | -99.78301 | 28521 ft | 433 kts | 356° |
| 2026-04-24 03:38 | 17.94461 | -99.78464 | 28916 ft | 435 kts | 356° |
| 2026-04-24 03:38 | 17.97493 | -99.78624 | 29292 ft | 438 kts | 356° |
| 2026-04-24 03:39 | 18.00547 | -99.78784 | 29663 ft | 440 kts | 356° |
| 2026-04-24 03:39 | 18.03610 | -99.78945 | 29883 ft | 441 kts | 356° |
| 2026-04-24 03:39 | 18.06634 | -99.79102 | 29920 ft | 429 kts | 356° |
| 2026-04-24 03:40 | 18.12480 | -99.79413 | 29922 ft | 421 kts | 356° |
| 2026-04-24 03:40 | 18.18311 | -99.79733 | 29920 ft | 419 kts | 356° |
| 2026-04-24 03:41 | 18.24122 | -99.80049 | 29918 ft | 417 kts | 356° |
| 2026-04-24 03:41 | 18.29919 | -99.80363 | 29917 ft | 417 kts | 356° |
| 2026-04-24 03:42 | 18.35710 | -99.80677 | 29930 ft | 417 kts | 355° |
| 2026-04-24 03:42 | 18.41509 | -99.80990 | 29930 ft | 417 kts | 356° |
| 2026-04-24 03:43 | 18.47303 | -99.81294 | 29951 ft | 417 kts | 356° |
| 2026-04-24 03:43 | 18.53097 | -99.81603 | 29952 ft | 417 kts | 355° |
| 2026-04-24 03:44 | 18.58903 | -99.81920 | 29954 ft | 418 kts | 355° |
| 2026-04-24 03:44 | 18.64702 | -99.82229 | 29975 ft | 417 kts | 357° |
| 2026-04-24 03:44 | 18.67592 | -99.81979 | 29976 ft | 418 kts | 10° |
| 2026-04-24 03:45 | 18.70358 | -99.81032 | 29965 ft | 421 kts | 22° |
| 2026-04-24 03:45 | 18.72877 | -99.79422 | 29949 ft | 426 kts | 36° |
| 2026-04-24 03:45 | 18.74989 | -99.77221 | 29776 ft | 430 kts | 49° |
| 2026-04-24 03:45 | 18.76556 | -99.74528 | 29649 ft | 434 kts | 62° |
| 2026-04-24 03:46 | 18.77788 | -99.71620 | 29504 ft | 434 kts | 63° |
| 2026-04-24 03:46 | 18.79015 | -99.68716 | 29369 ft | 433 kts | 63° |
| 2026-04-24 03:46 | 18.80246 | -99.65813 | 29229 ft | 432 kts | 63° |
| 2026-04-24 03:46 | 18.81476 | -99.62924 | 29090 ft | 432 kts | 63° |
| 2026-04-24 03:47 | 18.82703 | -99.60037 | 28956 ft | 431 kts | 63° |
| 2026-04-24 03:47 | 18.83926 | -99.57150 | 28816 ft | 430 kts | 63° |
| 2026-04-24 03:47 | 18.85142 | -99.54273 | 28676 ft | 429 kts | 63° |
| 2026-04-24 03:47 | 18.86357 | -99.51400 | 28524 ft | 428 kts | 63° |
| 2026-04-24 03:48 | 18.87572 | -99.48535 | 28382 ft | 427 kts | 63° |
| 2026-04-24 03:48 | 18.89997 | -99.42816 | 28153 ft | 426 kts | 63° |
| 2026-04-24 03:48 | 18.91200 | -99.39967 | 28015 ft | 425 kts | 63° |
| 2026-04-24 03:49 | 18.92402 | -99.37118 | 27863 ft | 424 kts | 63° |
| 2026-04-24 03:49 | 18.93586 | -99.34275 | 27741 ft | 423 kts | 64° |
| 2026-04-24 03:49 | 18.94757 | -99.31424 | 27601 ft | 423 kts | 64° |
| 2026-04-24 03:49 | 18.95920 | -99.28572 | 27478 ft | 422 kts | 63° |
| 2026-04-24 03:50 | 18.97321 | -99.25883 | 27225 ft | 416 kts | 54° |
| 2026-04-24 03:50 | 18.98904 | -99.23324 | 26431 ft | 419 kts | 54° |
| 2026-04-24 03:50 | 19.00541 | -99.20730 | 25351 ft | 431 kts | 54° |
| 2026-04-24 03:50 | 19.02230 | -99.18074 | 24531 ft | 436 kts | 53° |
| 2026-04-24 03:51 | 19.03924 | -99.15425 | 24337 ft | 438 kts | 53° |
| 2026-04-24 03:51 | 19.05655 | -99.12730 | 24117 ft | 453 kts | 53° |
| 2026-04-24 03:51 | 19.07468 | -99.09922 | 23898 ft | 470 kts | 53° |
| 2026-04-24 03:51 | 19.09331 | -99.07044 | 23702 ft | 477 kts | 53° |
| 2026-04-24 03:52 | 19.11207 | -99.04151 | 23469 ft | 477 kts | 53° |
| 2026-04-24 03:52 | 19.13083 | -99.01264 | 23231 ft | 476 kts | 53° |
| 2026-04-24 03:52 | 19.14953 | -98.98389 | 22983 ft | 474 kts | 53° |
| 2026-04-24 03:52 | 19.16794 | -98.95565 | 22742 ft | 472 kts | 53° |
| 2026-04-24 03:53 | 19.18679 | -98.92679 | 22516 ft | 469 kts | 53° |
| 2026-04-24 03:53 | 19.20506 | -98.89886 | 22276 ft | 467 kts | 53° |
| 2026-04-24 03:53 | 19.22356 | -98.87062 | 22017 ft | 465 kts | 53° |
| 2026-04-24 03:53 | 19.24221 | -98.84222 | 21759 ft | 463 kts | 53° |
| 2026-04-24 03:54 | 19.26031 | -98.81464 | 21513 ft | 462 kts | 53° |
| 2026-04-24 03:54 | 19.27856 | -98.78676 | 21056 ft | 460 kts | 53° |
| 2026-04-24 03:54 | 19.29672 | -98.75906 | 20569 ft | 456 kts | 53° |
| 2026-04-24 03:54 | 19.31477 | -98.73164 | 20051 ft | 450 kts | 53° |
| 2026-04-24 03:55 | 19.33241 | -98.70489 | 19669 ft | 430 kts | 53° |
| 2026-04-24 03:55 | 19.34979 | -98.68023 | 19047 ft | 408 kts | 45° |
| 2026-04-24 03:55 | 19.37157 | -98.66207 | 18187 ft | 393 kts | 27° |
| 2026-04-24 03:55 | 19.39582 | -98.64930 | 17319 ft | 382 kts | 24° |
| 2026-04-24 03:56 | 19.41896 | -98.63779 | 17019 ft | 357 kts | 24° |
| 2026-04-24 03:56 | 19.44126 | -98.62675 | 16607 ft | 350 kts | 23° |
| 2026-04-24 03:56 | 19.46317 | -98.61595 | 16210 ft | 345 kts | 23° |
| 2026-04-24 03:56 | 19.48488 | -98.60536 | 15797 ft | 342 kts | 21° |
| 2026-04-24 03:57 | 19.50764 | -98.59958 | 15394 ft | 336 kts | 0° |
| 2026-04-24 03:57 | 19.53087 | -98.60095 | 14970 ft | 333 kts | 354° |
| 2026-04-24 03:57 | 19.55386 | -98.60346 | 14556 ft | 331 kts | 353° |
| 2026-04-24 03:57 | 19.57670 | -98.60609 | 14158 ft | 329 kts | 353° |
| 2026-04-24 03:58 | 19.59943 | -98.60879 | 13753 ft | 327 kts | 352° |
| 2026-04-24 03:58 | 19.62185 | -98.61157 | 13385 ft | 322 kts | 347° |
| 2026-04-24 03:58 | 19.64245 | -98.62014 | 12952 ft | 318 kts | 327° |
| 2026-04-24 03:58 | 19.65879 | -98.63574 | 12492 ft | 318 kts | 307° |
| 2026-04-24 03:59 | 19.66866 | -98.65611 | 12265 ft | 302 kts | 287° |
| 2026-04-24 03:59 | 19.67157 | -98.67739 | 12147 ft | 284 kts | 269° |
| 2026-04-24 03:59 | 19.66833 | -98.69736 | 12025 ft | 268 kts | 251° |
| 2026-04-24 03:59 | 19.65994 | -98.71470 | 11842 ft | 265 kts | 234° |
| 2026-04-24 04:00 | 19.64769 | -98.72933 | 11501 ft | 267 kts | 228° |
| 2026-04-24 04:00 | 19.63489 | -98.74364 | 11204 ft | 267 kts | 227° |
| 2026-04-24 04:00 | 19.62211 | -98.75796 | 10918 ft | 267 kts | 227° |
| 2026-04-24 04:00 | 19.60951 | -98.77211 | 10786 ft | 260 kts | 227° |
| 2026-04-24 04:01 | 19.59733 | -98.78583 | 10670 ft | 251 kts | 227° |
| 2026-04-24 04:01 | 19.58660 | -98.80004 | 10559 ft | 243 kts | 238° |
| 2026-04-24 04:01 | 19.57816 | -98.81522 | 10450 ft | 235 kts | 241° |
| 2026-04-24 04:01 | 19.57014 | -98.82993 | 10377 ft | 225 kts | 240° |
| 2026-04-24 04:02 | 19.56238 | -98.84391 | 10121 ft | 218 kts | 240° |
| 2026-04-24 04:02 | 19.55467 | -98.85772 | 9900 ft | 216 kts | 240° |
| 2026-04-24 04:02 | 19.54697 | -98.87150 | 9901 ft | 218 kts | 239° |
| 2026-04-24 04:02 | 19.53922 | -98.88538 | 9919 ft | 219 kts | 240° |
| 2026-04-24 04:03 | 19.53146 | -98.89925 | 9931 ft | 219 kts | 240° |
| 2026-04-24 04:03 | 19.52387 | -98.91283 | 9939 ft | 205 kts | 240° |
| 2026-04-24 04:03 | 19.51693 | -98.92524 | 9905 ft | 186 kts | 239° |
| 2026-04-24 04:03 | 19.51059 | -98.93658 | 9745 ft | 172 kts | 240° |
| 2026-04-24 04:04 | 19.50471 | -98.94709 | 9617 ft | 162 kts | 239° |
| 2026-04-24 04:04 | 19.49901 | -98.95729 | 9484 ft | 160 kts | 239° |
| 2026-04-24 04:04 | 19.49338 | -98.96736 | 9351 ft | 158 kts | 238° |
| 2026-04-24 04:04 | 19.48786 | -98.97722 | 9208 ft | 157 kts | 237° |
| 2026-04-24 04:05 | 19.48230 | -98.98715 | 9013 ft | 156 kts | 237° |
| 2026-04-24 04:05 | 19.47675 | -98.99703 | 8759 ft | 156 kts | 238° |
| 2026-04-24 04:05 | 19.47119 | -99.00691 | 8511 ft | 156 kts | 237° |
| 2026-04-24 04:05 | 19.46564 | -99.01676 | 8221 ft | 156 kts | 238° |
| 2026-04-24 04:06 | 19.46012 | -99.02663 | 7972 ft | 156 kts | 239° |
| 2026-04-24 04:06 | 19.45462 | -99.03656 | 7740 ft | 156 kts | 239° |
| 2026-04-24 04:06 | 19.44909 | -99.04650 | 7509 ft | 158 kts | 238° |
| 2026-04-24 04:06 | 19.44347 | -99.05648 | 7315 ft | 156 kts | 237° |
| 2026-04-24 04:07 | 19.43862 | -99.06507 | 7303 ft | 112 kts | 240° |
| 2026-04-24 04:07 | 19.43577 | -99.07024 | 7302 ft | 55 kts | 240° |
| 2026-04-24 04:07 | 19.43400 | -99.07342 | 7303 ft | 38 kts | 240° |
| 2026-04-24 04:07 | 19.43327 | -99.07554 | 7303 ft | 24 kts | 269° |
| 2026-04-24 04:08 | 19.43326 | -99.07679 | 7303 ft | 13 kts | 269° |
| 2026-04-24 04:08 | 19.43325 | -99.07770 | 7304 ft | 6 kts | 269° |
| 2026-04-24 04:08 | 19.43324 | -99.07774 | 7304 ft | 1 kts | 269° |
| 2026-04-24 04:08 | 19.43324 | -99.07783 | 7304 ft | 2 kts | 269° |
| 2026-04-24 04:09 | 19.43324 | -99.07797 | 7305 ft | 1 kts | 269° |
| 2026-04-24 04:09 | 19.43324 | -99.07803 | 7305 ft | 0 kts | 269° |
| 2026-04-24 04:10 | 19.43324 | -99.07813 | 7305 ft | 4 kts | 269° |
| 2026-04-24 04:10 | 19.43323 | -99.07854 | 7305 ft | 7 kts | 269° |
| 2026-04-24 04:11 | 19.43321 | -99.07996 | 7304 ft | 12 kts | 274° |
| 2026-04-24 04:11 | 19.43342 | -99.08056 | 7303 ft | 14 kts | 308° |
| 2026-04-24 04:11 | 19.43396 | -99.08096 | 7303 ft | 9 kts | 327° |
| 2026-04-24 04:11 | 19.43438 | -99.08124 | 7302 ft | 3 kts | 328° |
| 2026-04-24 04:12 | 19.43454 | -99.08134 | 7302 ft | 5 kts | 329° |
| 2026-04-24 04:12 | 19.43490 | -99.08156 | 7302 ft | 7 kts | 330° |
| 2026-04-24 04:12 | 19.43502 | -99.08163 | 7302 ft | 0 kts | 330° |